Main page
METAR-TAF:

METAR-TAF

Airports :

Al-Hasa, Saudi Arabia

Al-Ahsa International Airport

latitude: 25-18N, longitude: 049-29E, elevation: 179 m

Current weather observation

The report was made 53 minutes ago, at 04:00 UTC
Wind 7 kt from the South/Southwest
Temperature 25°C
Humidity 19%
Pressure 1011 hPa
Visibility: 7000 m
Clear sky

METAR: OEAH 220400Z 21007KT 7000 SKC 25/00 Q1011 NOSIG

Time: 07:53 (04:53 UTC)

Forecast

The report was made 5 hours and 53 minutes ago, at 23:00 UTC
Forecast valid from 22 at 00 UTC to 23 at 06 UTC
Wind 6 kt from the West/Southwest with gusts up to 16 kt
Visibility 10 km or more
no clouds below 1500 m and no cumulonimbus
Temporary
from 22 at 00 UTC to 22 at 12 UTC
Visibility: 5000 m
widespread dust, Blowing dust
Becoming
from 22 at 14 UTC to 22 at 16 UTC
Wind 10 kt from the East/Northeast

TAF: OEAH 212300Z 2200/2306 24006G16KT CAVOK TEMPO 2200/2212 5000 DU BLDU BECMG 2214/2216 07010KT

Weather observations and forecasts of more than 4000 airports (METAR and TAF reports).

The available stations are represented by yellow and red dots on the map.

Hover mouse over dot to see the name of the station.

Then click to see weather observations and forecasts.

To change the map : click on the green buttons with a black cross to zoom in, on the green button with a dash to zoom out, or on the green arrows for adjacent maps.


METAR-TAF: